sensor_id;sensor_type;location;lat;lon;timestamp;pressure;altitude;pressure_sealevel;temperature;humidity
14902;BME280;7542;49.078;9.194;2023-09-19T00:00:16;98166.78;;;31.43;36.98
14902;BME280;7542;49.078;9.194;2023-09-19T00:01:21;98169.16;;;31.45;37.04
14902;BME280;7542;49.078;9.194;2023-09-19T00:02:25;98167.41;;;31.40;37.20
14902;BME280;7542;49.078;9.194;2023-09-19T00:03:31;98164.56;;;31.45;37.35
14902;BME280;7542;49.078;9.194;2023-09-19T00:04:36;98168.84;;;31.47;36.87
14902;BME280;7542;49.078;9.194;2023-09-19T00:05:42;98171.09;;;31.44;37.11
14902;BME280;7542;49.078;9.194;2023-09-19T00:06:46;98147.78;;;31.35;36.83
14902;BME280;7542;49.078;9.194;2023-09-19T00:07:56;98177.78;;;31.47;36.98
14902;BME280;7542;49.078;9.194;2023-09-19T00:09:01;98166.47;;;31.45;36.96
14902;BME280;7542;49.078;9.194;2023-09-19T00:10:05;98153.06;;;31.40;37.06
14902;BME280;7542;49.078;9.194;2023-09-19T00:11:09;98163.75;;;31.45;36.86
14902;BME280;7542;49.078;9.194;2023-09-19T00:12:12;98169.66;;;31.47;37.01
14902;BME280;7542;49.078;9.194;2023-09-19T00:13:16;98175.06;;;31.47;37.15
14902;BME280;7542;49.078;9.194;2023-09-19T00:14:19;98174.28;;;31.47;37.15
14902;BME280;7542;49.078;9.194;2023-09-19T00:15:24;98164.88;;;31.44;37.22
14902;BME280;7542;49.078;9.194;2023-09-19T00:16:29;98169.84;;;31.51;36.87
14902;BME280;7542;49.078;9.194;2023-09-19T00:17:32;98144.75;;;31.36;37.10
14902;BME280;7542;49.078;9.194;2023-09-19T00:18:34;98170.75;;;31.46;36.85
14902;BME280;7542;49.078;9.194;2023-09-19T00:19:37;98168.06;;;31.46;36.84
14902;BME280;7542;49.078;9.194;2023-09-19T00:20:39;98171.56;;;31.47;37.25
14902;BME280;7542;49.078;9.194;2023-09-19T00:21:56;98173.16;;;31.48;37.23
14902;BME280;7542;49.078;9.194;2023-09-19T00:22:59;98169.50;;;31.43;37.30
14902;BME280;7542;49.078;9.194;2023-09-19T00:24:10;98173.47;;;31.46;37.04
14902;BME280;7542;49.078;9.194;2023-09-19T00:25:14;98182.41;;;31.47;36.96
14902;BME280;7542;49.078;9.194;2023-09-19T00:26:17;98188.00;;;31.50;37.08
14902;BME280;7542;49.078;9.194;2023-09-19T00:27:20;98189.91;;;31.50;36.94
14902;BME280;7542;49.078;9.194;2023-09-19T00:28:22;98188.31;;;31.49;36.61
14902;BME280;7542;49.078;9.194;2023-09-19T00:29:28;98196.13;;;31.50;37.05
14902;BME280;7542;49.078;9.194;2023-09-19T00:30:35;98189.59;;;31.51;36.71
14902;BME280;7542;49.078;9.194;2023-09-19T00:31:38;98186.69;;;31.48;36.70
14902;BME280;7542;49.078;9.194;2023-09-19T00:32:43;98189.91;;;31.50;36.87
14902;BME280;7542;49.078;9.194;2023-09-19T00:33:47;98200.44;;;31.51;37.22
14902;BME280;7542;49.078;9.194;2023-09-19T00:34:50;98195.66;;;31.48;37.12
14902;BME280;7542;49.078;9.194;2023-09-19T00:35:56;98203.94;;;31.52;37.05
14902;BME280;7542;49.078;9.194;2023-09-19T00:37:06;98200.13;;;31.53;37.08
14902;BME280;7542;49.078;9.194;2023-09-19T00:38:09;98205.06;;;31.51;37.13
14902;BME280;7542;49.078;9.194;2023-09-19T00:39:11;98204.28;;;31.50;36.96
14902;BME280;7542;49.078;9.194;2023-09-19T00:40:13;98209.69;;;31.50;36.63
14902;BME280;7542;49.078;9.194;2023-09-19T00:41:17;98201.56;;;31.50;36.98
14902;BME280;7542;49.078;9.194;2023-09-19T00:42:23;98206.34;;;31.53;37.14
14902;BME280;7542;49.078;9.194;2023-09-19T00:43:27;98208.56;;;31.51;36.77
14902;BME280;7542;49.078;9.194;2023-09-19T00:44:30;98207.44;;;31.52;36.60
14902;BME280;7542;49.078;9.194;2023-09-19T00:45:34;98207.78;;;31.51;36.71
14902;BME280;7542;49.078;9.194;2023-09-19T00:46:38;98215.59;;;31.52;36.60
14902;BME280;7542;49.078;9.194;2023-09-19T00:47:51;98208.09;;;31.58;37.00
14902;BME280;7542;49.078;9.194;2023-09-19T00:48:57;98201.38;;;31.47;37.38
14902;BME280;7542;49.078;9.194;2023-09-19T00:50:04;98210.31;;;31.56;37.13
14902;BME280;7542;49.078;9.194;2023-09-19T00:51:10;98205.06;;;31.51;36.92
14902;BME280;7542;49.078;9.194;2023-09-19T00:52:13;98202.69;;;31.49;37.01
14902;BME280;7542;49.078;9.194;2023-09-19T00:53:29;98207.59;;;31.56;36.88
14902;BME280;7542;49.078;9.194;2023-09-19T00:54:34;98214.78;;;31.52;36.95
14902;BME280;7542;49.078;9.194;2023-09-19T00:55:40;98211.59;;;31.50;37.07
14902;BME280;7542;49.078;9.194;2023-09-19T00:56:47;98211.09;;;31.48;36.63
14902;BME280;7542;49.078;9.194;2023-09-19T00:57:53;98215.25;;;31.45;37.11
14902;BME280;7542;49.078;9.194;2023-09-19T00:58:58;98210.00;;;31.49;36.65
14902;BME280;7542;49.078;9.194;2023-09-19T01:00:02;98209.81;;;31.45;37.08
14902;BME280;7542;49.078;9.194;2023-09-19T01:01:08;98214.44;;;31.44;37.25
14902;BME280;7542;49.078;9.194;2023-09-19T01:02:10;98217.94;;;31.45;36.97
14902;BME280;7542;49.078;9.194;2023-09-19T01:03:17;98212.84;;;31.43;37.09
14902;BME280;7542;49.078;9.194;2023-09-19T01:04:21;98213.16;;;31.42;36.75
14902;BME280;7542;49.078;9.194;2023-09-19T01:05:25;98213.66;;;31.44;36.93
14902;BME280;7542;49.078;9.194;2023-09-19T01:06:31;98221.28;;;31.42;36.84
14902;BME280;7542;49.078;9.194;2023-09-19T01:07:33;98220.50;;;31.41;36.93
14902;BME280;7542;49.078;9.194;2023-09-19T01:08:37;98214.13;;;31.37;36.90
14902;BME280;7542;49.078;9.194;2023-09-19T01:09:39;98220.50;;;31.41;37.13
14902;BME280;7542;49.078;9.194;2023-09-19T01:11:00;98219.09;;;31.53;36.81
14902;BME280;7542;49.078;9.194;2023-09-19T01:12:06;98218.59;;;31.42;36.82
14902;BME280;7542;49.078;9.194;2023-09-19T01:13:55;98225.97;;;31.59;36.67
14902;BME280;7542;49.078;9.194;2023-09-19T01:17:16;98214.91;;;31.47;36.50
14902;BME280;7542;49.078;9.194;2023-09-19T01:18:59;98231.41;;;31.59;36.85
14902;BME280;7542;49.078;9.194;2023-09-19T01:21:44;98229.44;;;31.51;36.68
14902;BME280;7542;49.078;9.194;2023-09-19T01:23:12;98243.94;;;31.46;36.94
14902;BME280;7542;49.078;9.194;2023-09-19T01:30:32;98245.34;;;31.35;37.33
14902;BME280;7542;49.078;9.194;2023-09-19T01:31:40;98246.59;;;31.29;37.69
14902;BME280;7542;49.078;9.194;2023-09-19T01:32:45;98241.31;;;31.24;37.83
14902;BME280;7542;49.078;9.194;2023-09-19T01:33:58;98250.59;;;31.31;37.63
14902;BME280;7542;49.078;9.194;2023-09-19T01:35:07;98249.91;;;31.26;37.38
14902;BME280;7542;49.078;9.194;2023-09-19T01:36:16;98241.16;;;31.20;37.51
14902;BME280;7542;49.078;9.194;2023-09-19T01:37:21;98247.84;;;31.23;37.39
14902;BME280;7542;49.078;9.194;2023-09-19T01:38:27;98246.56;;;31.20;37.43
14902;BME280;7542;49.078;9.194;2023-09-19T01:39:31;98250.88;;;31.21;37.87
14902;BME280;7542;49.078;9.194;2023-09-19T01:40:42;98250.75;;;31.26;37.74
14902;BME280;7542;49.078;9.194;2023-09-19T01:42:11;98244.53;;;31.34;37.55
14902;BME280;7542;49.078;9.194;2023-09-19T01:43:29;98251.69;;;31.30;37.18
14902;BME280;7542;49.078;9.194;2023-09-19T01:45:03;98245.53;;;31.38;37.34
14902;BME280;7542;49.078;9.194;2023-09-19T01:46:23;98246.28;;;31.30;37.47
14902;BME280;7542;49.078;9.194;2023-09-19T01:47:46;98247.88;;;31.31;37.06
14902;BME280;7542;49.078;9.194;2023-09-19T01:49:33;98247.25;;;31.34;37.26
14902;BME280;7542;49.078;9.194;2023-09-19T01:51:01;98243.94;;;31.37;37.02
14902;BME280;7542;49.078;9.194;2023-09-19T01:53:44;98252.66;;;31.34;37.24
14902;BME280;7542;49.078;9.194;2023-09-19T01:54:56;98253.25;;;31.23;37.29
14902;BME280;7542;49.078;9.194;2023-09-19T01:56:16;98255.16;;;31.22;37.31
14902;BME280;7542;49.078;9.194;2023-09-19T01:57:34;98257.09;;;31.22;37.68
14902;BME280;7542;49.078;9.194;2023-09-19T01:58:44;98253.69;;;31.16;37.72
14902;BME280;7542;49.078;9.194;2023-09-19T02:00:00;98257.88;;;31.22;37.47
14902;BME280;7542;49.078;9.194;2023-09-19T02:01:11;98252.59;;;31.17;37.61
14902;BME280;7542;49.078;9.194;2023-09-19T02:02:21;98248.41;;;31.11;37.38
14902;BME280;7542;49.078;9.194;2023-09-19T02:03:26;98256.84;;;31.09;37.80
14902;BME280;7542;49.078;9.194;2023-09-19T02:04:29;98249.66;;;31.05;37.61
14902;BME280;7542;49.078;9.194;2023-09-19T02:05:33;98264.97;;;31.09;37.49
14902;BME280;7542;49.078;9.194;2023-09-19T02:06:35;98255.09;;;31.05;37.50
14902;BME280;7542;49.078;9.194;2023-09-19T02:07:39;98262.91;;;31.06;37.76
14902;BME280;7542;49.078;9.194;2023-09-19T02:08:44;98264.28;;;31.04;37.81
14902;BME280;7542;49.078;9.194;2023-09-19T02:09:46;98267.50;;;31.06;37.34
14902;BME280;7542;49.078;9.194;2023-09-19T02:10:51;98265.91;;;31.05;37.75
14902;BME280;7542;49.078;9.194;2023-09-19T02:11:54;98269.09;;;31.07;37.83
14902;BME280;7542;49.078;9.194;2023-09-19T02:12:57;98270.22;;;31.06;37.77
14902;BME280;7542;49.078;9.194;2023-09-19T02:14:02;98267.50;;;31.06;37.55
14902;BME280;7542;49.078;9.194;2023-09-19T02:15:07;98257.75;;;30.96;37.59
14902;BME280;7542;49.078;9.194;2023-09-19T02:16:10;98265.91;;;31.05;37.68
14902;BME280;7542;49.078;9.194;2023-09-19T02:17:13;98263.50;;;31.03;37.86
14902;BME280;7542;49.078;9.194;2023-09-19T02:18:16;98267.00;;;31.04;37.41
14902;BME280;7542;49.078;9.194;2023-09-19T02:19:19;98267.63;;;31.01;38.06
14902;BME280;7542;49.078;9.194;2023-09-19T02:20:22;98263.34;;;31.00;37.56
14902;BME280;7542;49.078;9.194;2023-09-19T02:21:24;98271.63;;;31.03;37.42
14902;BME280;7542;49.078;9.194;2023-09-19T02:22:28;98276.88;;;31.00;37.53
14902;BME280;7542;49.078;9.194;2023-09-19T02:23:31;98265.25;;;30.99;37.29
14902;BME280;7542;49.078;9.194;2023-09-19T02:24:34;98271.78;;;30.98;37.50
14902;BME280;7542;49.078;9.194;2023-09-19T02:25:42;98275.44;;;31.02;37.38
14902;BME280;7542;49.078;9.194;2023-09-19T02:26:45;98268.75;;;31.00;37.65
14902;BME280;7542;49.078;9.194;2023-09-19T02:27:48;98265.72;;;31.01;37.39
14902;BME280;7542;49.078;9.194;2023-09-19T02:28:52;98268.44;;;31.01;37.30
14902;BME280;7542;49.078;9.194;2023-09-19T02:29:54;98266.97;;;30.95;37.52
14902;BME280;7542;49.078;9.194;2023-09-19T02:30:58;98265.38;;;30.94;37.96
14902;BME280;7542;49.078;9.194;2023-09-19T02:32:02;98273.03;;;31.01;37.81
14902;BME280;7542;49.078;9.194;2023-09-19T02:33:06;98269.38;;;30.97;37.64
14902;BME280;7542;49.078;9.194;2023-09-19T02:34:08;98268.25;;;30.98;37.59
14902;BME280;7542;49.078;9.194;2023-09-19T02:35:10;98260.56;;;30.91;37.40
14902;BME280;7542;49.078;9.194;2023-09-19T02:36:13;98265.88;;;30.96;37.56
14902;BME280;7542;49.078;9.194;2023-09-19T02:37:15;98274.78;;;30.97;37.66
14902;BME280;7542;49.078;9.194;2023-09-19T02:38:20;98268.09;;;30.94;37.48
14902;BME280;7542;49.078;9.194;2023-09-19T02:39:26;98279.91;;;30.98;37.49
14902;BME280;7542;49.078;9.194;2023-09-19T02:40:29;98279.91;;;30.98;37.52
14902;BME280;7542;49.078;9.194;2023-09-19T02:41:32;98272.41;;;30.95;37.70
14902;BME280;7542;49.078;9.194;2023-09-19T02:42:34;98262.69;;;30.94;37.40
14902;BME280;7542;49.078;9.194;2023-09-19T02:43:36;98276.22;;;30.94;37.81
14902;BME280;7542;49.078;9.194;2023-09-19T02:44:39;98273.63;;;30.89;37.54
14902;BME280;7542;49.078;9.194;2023-09-19T02:45:41;98270.13;;;30.88;37.75
14902;BME280;7542;49.078;9.194;2023-09-19T02:46:43;98280.84;;;30.94;37.63
14902;BME280;7542;49.078;9.194;2023-09-19T02:47:47;98273.00;;;30.92;37.76
14902;BME280;7542;49.078;9.194;2023-09-19T02:48:50;98277.00;;;30.95;37.72
14902;BME280;7542;49.078;9.194;2023-09-19T02:49:52;98275.41;;;30.94;37.40
14902;BME280;7542;49.078;9.194;2023-09-19T02:50:54;98272.19;;;30.92;37.68
14902;BME280;7542;49.078;9.194;2023-09-19T02:52:00;98271.88;;;30.93;37.84
14902;BME280;7542;49.078;9.194;2023-09-19T02:53:05;98269.31;;;30.88;37.61
14902;BME280;7542;49.078;9.194;2023-09-19T02:54:08;98269.31;;;30.88;37.78
14902;BME280;7542;49.078;9.194;2023-09-19T02:55:12;98284.63;;;30.93;37.66
14902;BME280;7542;49.078;9.194;2023-09-19T02:56:20;98275.69;;;30.92;37.42
14902;BME280;7542;49.078;9.194;2023-09-19T02:57:22;98281.75;;;30.89;37.64
14902;BME280;7542;49.078;9.194;2023-09-19T02:58:28;98274.75;;;30.88;37.78
14902;BME280;7542;49.078;9.194;2023-09-19T02:59:32;98278.38;;;30.83;37.96
14902;BME280;7542;49.078;9.194;2023-09-19T03:00:34;98287.97;;;30.90;37.77
14902;BME280;7542;49.078;9.194;2023-09-19T03:01:37;98284.78;;;30.87;37.64
14902;BME280;7542;49.078;9.194;2023-09-19T03:02:41;98288.59;;;30.86;37.63
14902;BME280;7542;49.078;9.194;2023-09-19T03:03:45;98290.97;;;30.88;37.59
14902;BME280;7542;49.078;9.194;2023-09-19T03:04:47;98291.13;;;30.83;37.75
14902;BME280;7542;49.078;9.194;2023-09-19T03:05:50;98294.81;;;30.87;38.02
14902;BME280;7542;49.078;9.194;2023-09-19T03:06:56;98292.09;;;30.87;37.65
14902;BME280;7542;49.078;9.194;2023-09-19T03:08:04;98288.28;;;30.88;37.40
14902;BME280;7542;49.078;9.194;2023-09-19T03:09:07;98294.81;;;30.87;37.42
14902;BME280;7542;49.078;9.194;2023-09-19T03:10:20;98290.50;;;30.86;38.22
14902;BME280;7542;49.078;9.194;2023-09-19T03:11:25;98293.53;;;30.84;37.36
14902;BME280;7542;49.078;9.194;2023-09-19T03:12:27;98295.44;;;30.84;37.93
14902;BME280;7542;49.078;9.194;2023-09-19T03:13:31;98292.22;;;30.82;37.82
14902;BME280;7542;49.078;9.194;2023-09-19T03:14:34;98285.41;;;30.84;37.49
14902;BME280;7542;49.078;9.194;2023-09-19T03:15:42;98296.72;;;30.86;37.53
14902;BME280;7542;49.078;9.194;2023-09-19T03:16:46;98286.31;;;30.80;37.76
14902;BME280;7542;49.078;9.194;2023-09-19T03:17:49;98296.81;;;30.81;37.56
14902;BME280;7542;49.078;9.194;2023-09-19T03:18:53;98296.53;;;30.83;37.89
14902;BME280;7542;49.078;9.194;2023-09-19T03:19:55;98298.41;;;30.82;37.86
14902;BME280;7542;49.078;9.194;2023-09-19T03:20:59;98300.63;;;30.80;37.34
14902;BME280;7542;49.078;9.194;2023-09-19T03:22:10;98304.16;;;30.81;37.79
14902;BME280;7542;49.078;9.194;2023-09-19T03:23:12;98304.16;;;30.81;37.77
14902;BME280;7542;49.078;9.194;2023-09-19T03:24:15;98311.47;;;30.80;37.89
14902;BME280;7542;49.078;9.194;2023-09-19T03:25:17;98309.06;;;30.79;37.49
14902;BME280;7542;49.078;9.194;2023-09-19T03:26:19;98307.47;;;30.78;37.37
14902;BME280;7542;49.078;9.194;2023-09-19T03:27:21;98302.38;;;30.76;37.70
14902;BME280;7542;49.078;9.194;2023-09-19T03:28:25;98299.66;;;30.76;37.83
14902;BME280;7542;49.078;9.194;2023-09-19T03:29:29;98308.28;;;30.78;37.92
14902;BME280;7542;49.078;9.194;2023-09-19T03:30:36;98302.38;;;30.76;37.53
14902;BME280;7542;49.078;9.194;2023-09-19T03:31:38;98307.00;;;30.76;37.62
14902;BME280;7542;49.078;9.194;2023-09-19T03:32:47;98298.88;;;30.76;37.39
14902;BME280;7542;49.078;9.194;2023-09-19T03:33:52;98314.50;;;30.79;37.62
14902;BME280;7542;49.078;9.194;2023-09-19T03:34:54;98306.00;;;30.72;37.68
14902;BME280;7542;49.078;9.194;2023-09-19T03:36:00;98306.31;;;30.70;37.92
14902;BME280;7542;49.078;9.194;2023-09-19T03:37:03;98306.50;;;30.74;37.58
14902;BME280;7542;49.078;9.194;2023-09-19T03:38:06;98303.50;;;30.75;37.91
14902;BME280;7542;49.078;9.194;2023-09-19T03:39:08;98301.19;;;30.69;37.82
14902;BME280;7542;49.078;9.194;2023-09-19T03:40:11;98310.59;;;30.71;37.85
14902;BME280;7542;49.078;9.194;2023-09-19T03:41:14;98316.53;;;30.73;37.74
14902;BME280;7542;49.078;9.194;2023-09-19T03:42:19;98311.41;;;30.72;37.90
14902;BME280;7542;49.078;9.194;2023-09-19T03:43:28;98311.91;;;30.74;37.84
14902;BME280;7542;49.078;9.194;2023-09-19T03:44:31;98309.16;;;30.65;37.51
14902;BME280;7542;49.078;9.194;2023-09-19T03:45:33;98308.84;;;30.67;37.95
14902;BME280;7542;49.078;9.194;2023-09-19T03:46:35;98305.03;;;30.68;38.17
14902;BME280;7542;49.078;9.194;2023-09-19T03:47:40;98298.31;;;30.65;38.04
14902;BME280;7542;49.078;9.194;2023-09-19T03:48:42;98311.41;;;30.72;38.00
14902;BME280;7542;49.078;9.194;2023-09-19T03:49:45;98304.41;;;30.71;37.99
14902;BME280;7542;49.078;9.194;2023-09-19T03:50:47;98309.00;;;30.70;38.02
14902;BME280;7542;49.078;9.194;2023-09-19T03:51:50;98305.81;;;30.68;38.24
14902;BME280;7542;49.078;9.194;2023-09-19T03:52:56;98318.72;;;30.71;38.31
14902;BME280;7542;49.078;9.194;2023-09-19T03:53:59;98315.53;;;30.69;37.88
14902;BME280;7542;49.078;9.194;2023-09-19T03:55:02;98313.75;;;30.65;38.20
14902;BME280;7542;49.078;9.194;2023-09-19T03:56:06;98320.47;;;30.67;37.89
14902;BME280;7542;49.078;9.194;2023-09-19T03:57:11;98307.31;;;30.60;37.74
14902;BME280;7542;49.078;9.194;2023-09-19T03:58:17;98304.91;;;30.59;38.04
14902;BME280;7542;49.078;9.194;2023-09-19T03:59:19;98309.06;;;30.56;38.26
14902;BME280;7542;49.078;9.194;2023-09-19T04:00:23;98304.59;;;30.60;37.83
14902;BME280;7542;49.078;9.194;2023-09-19T04:01:28;98312.34;;;30.67;38.04
14902;BME280;7542;49.078;9.194;2023-09-19T04:02:32;98315.34;;;30.66;38.04
14902;BME280;7542;49.078;9.194;2023-09-19T04:03:35;98307.56;;;30.64;38.05
14902;BME280;7542;49.078;9.194;2023-09-19T04:04:52;98316.81;;;30.72;37.83
14902;BME280;7542;49.078;9.194;2023-09-19T04:05:55;98308.63;;;30.63;37.98
14902;BME280;7542;49.078;9.194;2023-09-19T04:06:57;98315.84;;;30.68;38.28
14902;BME280;7542;49.078;9.194;2023-09-19T04:07:59;98320.47;;;30.67;38.29
14902;BME280;7542;49.078;9.194;2023-09-19T04:09:05;98313.63;;;30.70;37.90
14902;BME280;7542;49.078;9.194;2023-09-19T04:10:09;98313.94;;;30.68;37.94
14902;BME280;7542;49.078;9.194;2023-09-19T04:11:13;98315.84;;;30.68;38.45
14902;BME280;7542;49.078;9.194;2023-09-19T04:12:16;98313.44;;;30.66;38.08
14902;BME280;7542;49.078;9.194;2023-09-19T04:13:21;98319.97;;;30.65;38.50
14902;BME280;7542;49.078;9.194;2023-09-19T04:14:23;98313.03;;;30.59;38.11
14902;BME280;7542;49.078;9.194;2023-09-19T04:15:26;98322.69;;;30.65;37.87
14902;BME280;7542;49.078;9.194;2023-09-19T04:16:29;98332.88;;;30.68;38.00
14902;BME280;7542;49.078;9.194;2023-09-19T04:17:31;98322.69;;;30.65;38.16
14902;BME280;7542;49.078;9.194;2023-09-19T04:18:35;98325.97;;;30.62;37.99
14902;BME280;7542;49.078;9.194;2023-09-19T04:19:41;98328.28;;;30.69;38.18
14902;BME280;7542;49.078;9.194;2023-09-19T04:20:50;98329.28;;;30.73;38.22
14902;BME280;7542;49.078;9.194;2023-09-19T04:21:54;98333.50;;;30.65;38.15
14902;BME280;7542;49.078;9.194;2023-09-19T04:22:57;98333.19;;;30.67;38.19
14902;BME280;7542;49.078;9.194;2023-09-19T04:23:59;98328.59;;;30.67;38.14
14902;BME280;7542;49.078;9.194;2023-09-19T04:25:01;98348.63;;;30.66;38.12
14902;BME280;7542;49.078;9.194;2023-09-19T04:26:04;98336.69;;;30.67;37.67
14902;BME280;7542;49.078;9.194;2023-09-19T04:27:08;98335.09;;;30.66;37.92
14902;BME280;7542;49.078;9.194;2023-09-19T04:28:11;98333.81;;;30.64;38.14
14902;BME280;7542;49.078;9.194;2023-09-19T04:29:13;98342.22;;;30.62;38.01
14902;BME280;7542;49.078;9.194;2023-09-19T04:30:16;98338.19;;;30.59;38.04
14902;BME280;7542;49.078;9.194;2023-09-19T04:31:18;98352.44;;;30.65;38.16
14902;BME280;7542;49.078;9.194;2023-09-19T04:32:21;98356.75;;;30.66;38.08
14902;BME280;7542;49.078;9.194;2023-09-19T04:33:23;98352.44;;;30.65;38.22
14902;BME280;7542;49.078;9.194;2023-09-19T04:34:25;98357.88;;;30.65;38.33
14902;BME280;7542;49.078;9.194;2023-09-19T04:35:27;98352.44;;;30.65;38.30
14902;BME280;7542;49.078;9.194;2023-09-19T04:36:31;98354.63;;;30.63;37.92
14902;BME280;7542;49.078;9.194;2023-09-19T04:37:40;98357.56;;;30.67;37.90
14902;BME280;7542;49.078;9.194;2023-09-19T04:38:44;98358.66;;;30.66;38.16
14902;BME280;7542;49.078;9.194;2023-09-19T04:39:47;98357.88;;;30.65;38.13
14902;BME280;7542;49.078;9.194;2023-09-19T04:40:49;98361.69;;;30.64;38.21
14902;BME280;7542;49.078;9.194;2023-09-19T04:41:54;98362.75;;;30.63;38.18
14902;BME280;7542;49.078;9.194;2023-09-19T04:42:56;98356.84;;;30.61;37.67
14902;BME280;7542;49.078;9.194;2023-09-19T04:43:59;98358.72;;;30.60;38.11
14902;BME280;7542;49.078;9.194;2023-09-19T04:45:01;98354.44;;;30.59;38.35
14902;BME280;7542;49.078;9.194;2023-09-19T04:46:03;98363.06;;;30.62;37.73
14902;BME280;7542;49.078;9.194;2023-09-19T04:47:08;98372.78;;;30.63;38.38
14902;BME280;7542;49.078;9.194;2023-09-19T04:48:10;98361.75;;;30.59;37.90
14902;BME280;7542;49.078;9.194;2023-09-19T04:49:13;98360.63;;;30.60;38.35
14902;BME280;7542;49.078;9.194;2023-09-19T04:50:17;98361.75;;;30.59;38.36
14902;BME280;7542;49.078;9.194;2023-09-19T04:51:21;98363.34;;;30.60;38.11
14902;BME280;7542;49.078;9.194;2023-09-19T04:52:23;98364.47;;;30.59;37.95
14902;BME280;7542;49.078;9.194;2023-09-19T04:53:25;98361.25;;;30.57;38.20
14902;BME280;7542;49.078;9.194;2023-09-19T04:54:29;98353.75;;;30.54;37.92
14902;BME280;7542;49.078;9.194;2023-09-19T04:55:32;98353.94;;;30.57;38.40
14902;BME280;7542;49.078;9.194;2023-09-19T04:56:35;98367.16;;;30.59;38.18
14902;BME280;7542;49.078;9.194;2023-09-19T04:57:36;98362.38;;;30.56;38.14
14902;BME280;7542;49.078;9.194;2023-09-19T04:58:39;98363.66;;;30.58;37.93
14902;BME280;7542;49.078;9.194;2023-09-19T04:59:42;98366.97;;;30.55;37.85
14902;BME280;7542;49.078;9.194;2023-09-19T05:00:44;98374.47;;;30.58;37.85
14902;BME280;7542;49.078;9.194;2023-09-19T05:01:46;98372.09;;;30.57;37.81
14902;BME280;7542;49.078;9.194;2023-09-19T05:02:51;98369.88;;;30.59;37.70
14902;BME280;7542;49.078;9.194;2023-09-19T05:03:54;98362.38;;;30.56;38.46
14902;BME280;7542;49.078;9.194;2023-09-19T05:04:56;98378.59;;;30.56;37.85
14902;BME280;7542;49.078;9.194;2023-09-19T05:06:02;98379.41;;;30.56;38.09
14902;BME280;7542;49.078;9.194;2023-09-19T05:07:05;98382.91;;;30.57;37.94
14902;BME280;7542;49.078;9.194;2023-09-19T05:08:08;98382.72;;;30.53;38.25
14902;BME280;7542;49.078;9.194;2023-09-19T05:09:11;98372.81;;;30.49;37.78
14902;BME280;7542;49.078;9.194;2023-09-19T05:10:13;98385.44;;;30.53;38.35
14902;BME280;7542;49.078;9.194;2023-09-19T05:11:20;98384.81;;;30.56;38.20
14902;BME280;7542;49.078;9.194;2023-09-19T05:12:23;98381.31;;;30.56;38.04
14902;BME280;7542;49.078;9.194;2023-09-19T05:13:27;98378.91;;;30.54;38.29
14902;BME280;7542;49.078;9.194;2023-09-19T05:14:31;98377.94;;;30.50;38.18
14902;BME280;7542;49.078;9.194;2023-09-19T05:15:33;98386.53;;;30.52;37.93
14902;BME280;7542;49.078;9.194;2023-09-19T05:16:35;98387.94;;;30.50;38.16
14902;BME280;7542;49.078;9.194;2023-09-19T05:17:37;98389.56;;;30.51;37.98
14902;BME280;7542;49.078;9.194;2023-09-19T05:18:42;98393.06;;;30.51;38.26
14902;BME280;7542;49.078;9.194;2023-09-19T05:19:44;98396.56;;;30.52;37.86
14902;BME280;7542;49.078;9.194;2023-09-19T05:20:47;98394.97;;;30.51;37.82
14902;BME280;7542;49.078;9.194;2023-09-19T05:21:51;98391.75;;;30.49;37.81
14902;BME280;7542;49.078;9.194;2023-09-19T05:23:04;98390.53;;;30.55;37.89
14902;BME280;7542;49.078;9.194;2023-09-19T05:24:11;98397.88;;;30.54;37.82
14902;BME280;7542;49.078;9.194;2023-09-19T05:25:16;98395.25;;;30.49;37.97
14902;BME280;7542;49.078;9.194;2023-09-19T05:26:20;98398.47;;;30.51;38.23
14902;BME280;7542;49.078;9.194;2023-09-19T05:27:24;98398.09;;;30.44;38.05
14902;BME280;7542;49.078;9.194;2023-09-19T05:28:27;98403.38;;;30.49;38.52
14902;BME280;7542;49.078;9.194;2023-09-19T05:29:31;98405.28;;;30.49;38.24
14902;BME280;7542;49.078;9.194;2023-09-19T05:30:35;98399.88;;;30.49;37.98
14902;BME280;7542;49.078;9.194;2023-09-19T05:31:38;98401.59;;;30.45;38.31
14902;BME280;7542;49.078;9.194;2023-09-19T05:32:43;98407.97;;;30.49;38.05
14902;BME280;7542;49.078;9.194;2023-09-19T05:33:45;98411.31;;;30.46;38.47
14902;BME280;7542;49.078;9.194;2023-09-19T05:34:47;98400.31;;;30.42;38.02
14902;BME280;7542;49.078;9.194;2023-09-19T05:35:49;98405.91;;;30.46;37.83
14902;BME280;7542;49.078;9.194;2023-09-19T05:36:52;98413.69;;;30.47;38.00
14902;BME280;7542;49.078;9.194;2023-09-19T05:37:57;98405.91;;;30.46;37.94
14902;BME280;7542;49.078;9.194;2023-09-19T05:38:59;98407.50;;;30.47;37.89
14902;BME280;7542;49.078;9.194;2023-09-19T05:40:03;98395.88;;;30.46;38.53
14902;BME280;7542;49.078;9.194;2023-09-19T05:41:09;98397.28;;;30.44;38.32
14902;BME280;7542;49.078;9.194;2023-09-19T05:42:15;98411.31;;;30.46;38.45
14902;BME280;7542;49.078;9.194;2023-09-19T05:43:19;98420.22;;;30.46;38.32
14902;BME280;7542;49.078;9.194;2023-09-19T05:44:24;98421.03;;;30.47;38.18
14902;BME280;7542;49.078;9.194;2023-09-19T05:45:27;98417.63;;;30.41;38.33
14902;BME280;7542;49.078;9.194;2023-09-19T05:46:29;98427.53;;;30.46;38.33
14902;BME280;7542;49.078;9.194;2023-09-19T05:47:33;98422.75;;;30.43;38.54
14902;BME280;7542;49.078;9.194;2023-09-19T05:48:37;98424.34;;;30.44;37.99
14902;BME280;7542;49.078;9.194;2023-09-19T05:49:44;98434.06;;;30.45;38.64
14902;BME280;7542;49.078;9.194;2023-09-19T05:50:47;98433.56;;;30.43;38.08
14902;BME280;7542;49.078;9.194;2023-09-19T05:51:50;98429.25;;;30.42;38.34
14902;BME280;7542;49.078;9.194;2023-09-19T05:52:55;98417.81;;;30.45;38.62
14902;BME280;7542;49.078;9.194;2023-09-19T05:53:58;98420.53;;;30.45;38.44
14902;BME280;7542;49.078;9.194;2023-09-19T05:55:00;98418.94;;;30.44;38.46
14902;BME280;7542;49.078;9.194;2023-09-19T05:56:03;98418.94;;;30.44;38.63
14902;BME280;7542;49.078;9.194;2023-09-19T05:57:07;98418.75;;;30.40;38.20
14902;BME280;7542;49.078;9.194;2023-09-19T05:58:09;98424.34;;;30.44;38.33
14902;BME280;7542;49.078;9.194;2023-09-19T05:59:12;98434.66;;;30.42;38.66
14902;BME280;7542;49.078;9.194;2023-09-19T06:00:22;98435.34;;;30.47;38.19
14902;BME280;7542;49.078;9.194;2023-09-19T06:01:25;98440.28;;;30.45;38.83